Startpagina
METAR-TAF:

METAR-TAF

Vliegvelden :

Bonriki International Airport

Tarawa, Kiribati

breedte: 01-21N, lengte: 172-55E, hoogte: 2 m

Actueel weer

Dit bericht is 53 minuten geleden gemaakt, om 20:00 UTC
Wind 5 kt uit het westnoordwesten
Temperatuur 29°C
Vochtigheid 89%
Druk 1008 hPa
Zicht 10 km of meer
Verspreide wolken op 2000 ft
Gebroken wolken op 30000 ft

METAR: NGTA 242000Z 30005KT 9999 SCT020 BKN300 29/27 Q1008

Tijdstip: 10:53 (20:53 UTC)

Verwachting

Dit bericht is 3 uur en het 34 minuten geleden gemaakt, om 17:19 UTC
Verwachting geldig van 24 om 18 UTC tot 25 om 18 UTC
Wind 6 kt uit het westen
Zicht 10 km of meer
Verspreide wolken op 2000 ft

TAF: NGTA 241719Z 2418/2518 28006KT 9999 SCT020

Waarnemingen en weersverwachtingen van meer dan 4000 vliegvelden (METAR en TAF).

De beschikbare stations zijn de gele en rode punten op de kaart.

Ga met uw muis naar het station om de naam te zien.

Klik dan om waarnemingen en weersverwachtingen te zien.

kaart wijzigen: klik op de groene knoppen met een zwart kruis om in te zoomen, op de groene knop met een streepje om uit te zoomen of op de groene pijlen voor aangrenzende kaarten.


METAR-TAF: